Time;durP1;ratioP1;P1;durP2;ratioP2;P2;SDS_P1;SDS_P2;PMS_P1;PMS_P2;Temp;Humidity;BMP_temperature;BMP_pressure;BME280_temperature;BME280_humidity;BME280_pressure;Samples;Min_cycle;Max_cycle;Signal;HPM_P1;HPM_P2
2023/01/25 00:00:31;;;;;;;24.93;5.83;;;26.00;71.70;;;;;;5050006;28;20279;-73
2023/01/25 00:02:59;;;;;;;19.97;3.67;;;26.00;70.20;;;;;;5051366;28;20179;-72
2023/01/25 00:05:26;;;;;;;16.60;3.80;;;25.90;70.40;;;;;;5047471;28;20168;-69
2023/01/25 00:07:53;;;;;;;20.33;3.83;;;25.90;70.70;;;;;;5049598;28;20188;-69
2023/01/25 00:10:21;;;;;;;8.27;2.30;;;26.00;70.60;;;;;;5050635;28;20193;-72
2023/01/25 00:12:48;;;;;;;11.17;2.63;;;25.80;70.10;;;;;;5051545;28;20635;-74
2023/01/25 00:15:15;;;;;;;7.50;2.53;;;26.00;70.40;;;;;;5052291;28;20183;-69
2023/01/25 00:17:43;;;;;;;11.80;2.57;;;26.10;70.50;;;;;;5051194;28;20267;-69
2023/01/25 00:20:11;;;;;;;10.10;2.13;;;26.20;69.80;;;;;;5051912;28;20267;-71
2023/01/25 00:22:55;;;;;;;8.80;2.17;;;26.20;69.60;;;;;;5052967;28;20590;-71
2023/01/25 00:25:29;;;;;;;9.50;2.57;;;26.30;69.10;;;;;;5048362;28;20279;-68
2023/01/25 00:27:59;;;;;;;5.80;1.87;;;26.20;68.80;;;;;;5053495;28;20192;-70
2023/01/25 00:30:40;;;;;;;10.97;2.20;;;26.10;69.50;;;;;;5049097;28;20172;-72
2023/01/25 00:33:30;;;;;;;14.10;2.47;;;26.00;69.70;;;;;;5052720;28;20195;-72
2023/01/25 00:36:00;;;;;;;11.60;2.07;;;26.10;69.10;;;;;;5052620;28;20188;-73
2023/01/25 00:38:41;;;;;;;6.13;2.13;;;26.10;69.30;;;;;;5052438;28;20255;-69
2023/01/25 00:41:28;;;;;;;10.70;2.90;;;26.50;69.40;;;;;;5053777;28;20188;-77
2023/01/25 00:44:11;;;;;;;8.90;2.77;;;26.80;66.50;;;;;;5053917;28;20187;-75
2023/01/25 00:46:43;;;;;;;7.50;2.50;;;26.70;67.40;;;;;;5053269;28;20212;-76
2023/01/25 00:49:30;;;;;;;8.50;2.30;;;26.60;68.20;;;;;;5053537;28;20172;-78
2023/01/25 00:52:10;;;;;;;12.63;2.43;;;26.60;67.80;;;;;;5048249;28;20382;-73
2023/01/25 00:54:56;;;;;;;13.80;2.97;;;26.40;68.90;;;;;;5052129;28;20202;-76
2023/01/25 00:57:42;;;;;;;11.50;2.57;;;26.50;69.00;;;;;;5053135;28;20180;-77
2023/01/25 01:00:14;;;;;;;8.07;2.53;;;26.50;68.60;;;;;;5052666;28;20180;-75
2023/01/25 01:02:48;;;;;;;9.37;2.47;;;26.60;68.70;;;;;;5052779;28;20184;-72
2023/01/25 01:05:21;;;;;;;7.20;2.07;;;26.60;68.10;;;;;;5051750;28;20208;-74
2023/01/25 01:07:55;;;;;;;8.37;2.47;;;26.60;67.80;;;;;;5053591;28;20196;-78
2023/01/25 01:10:23;;;;;;;8.37;2.77;;;26.60;67.00;;;;;;5053601;28;20180;-73
2023/01/25 01:13:05;;;;;;;8.17;2.70;;;26.70;68.10;;;;;;5052518;28;20650;-74
2023/01/25 01:16:04;;;;;;;7.33;2.17;;;26.60;67.50;;;;;;5079606;28;20183;-71
2023/01/25 01:18:49;;;;;;;8.10;2.20;;;26.80;67.50;;;;;;5048317;28;20184;-74
2023/01/25 01:21:32;;;;;;;4.27;2.03;;;27.00;66.10;;;;;;5051906;28;20234;-75
2023/01/25 01:24:09;;;;;;;5.90;2.33;;;27.40;65.00;;;;;;5065902;28;20191;-69
2023/01/25 01:26:38;;;;;;;11.13;2.87;;;28.00;64.70;;;;;;5051048;28;20221;-74
2023/01/25 01:29:12;;;;;;;9.60;2.33;;;28.10;63.30;;;;;;5051998;28;20274;-71
2023/01/25 01:31:45;;;;;;;7.27;2.23;;;28.20;62.20;;;;;;5052904;28;20231;-66
2023/01/25 01:34:14;;;;;;;9.83;2.07;;;28.60;61.00;;;;;;5051450;28;20856;-70
2023/01/25 01:39:32;;;;;;;7.97;2.20;;;29.10;59.20;;;;;;5050232;28;20215;-70
2023/01/25 01:42:00;;;;;;;6.93;2.30;;;28.70;60.00;;;;;;5050999;28;20176;-71
2023/01/25 01:44:57;;;;;;;5.90;2.23;;;28.10;62.40;;;;;;5051330;28;20287;-71
2023/01/25 01:47:45;;;;;;;9.93;2.07;;;28.00;63.20;;;;;;5050862;28;20222;-70
2023/01/25 01:50:26;;;;;;;7.27;2.30;;;27.80;64.60;;;;;;5051070;28;20278;-69
2023/01/25 01:52:57;;;;;;;4.70;2.10;;;28.30;64.10;;;;;;5050563;28;20270;-70
2023/01/25 01:55:35;;;;;;;7.43;1.77;;;28.80;63.50;;;;;;5045704;28;20184;-69
2023/01/25 01:58:06;;;;;;;7.37;2.10;;;28.70;63.60;;;;;;5049782;28;20184;-71
2023/01/25 02:00:42;;;;;;;7.90;2.03;;;28.30;63.70;;;;;;5050390;28;20635;-70
2023/01/25 02:03:23;;;;;;;17.73;4.43;;;28.60;63.00;;;;;;5051488;28;20237;-69
2023/01/25 02:05:56;;;;;;;5.03;2.23;;;28.20;64.20;;;;;;5061480;28;20204;-68
2023/01/25 02:08:29;;;;;;;12.47;2.40;;;28.30;63.90;;;;;;5051942;28;20591;-67
2023/01/25 02:11:00;;;;;;;6.90;2.27;;;28.50;62.80;;;;;;5048859;28;20200;-69
2023/01/25 02:13:32;;;;;;;6.60;2.33;;;28.40;62.10;;;;;;5049948;28;20188;-69
2023/01/25 02:16:02;;;;;;;6.97;2.10;;;28.90;61.80;;;;;;5050722;28;20180;-69
2023/01/25 02:18:30;;;;;;;5.53;2.20;;;29.30;60.40;;;;;;5050415;28;20538;-69
2023/01/25 02:21:01;;;;;;;7.53;2.50;;;29.80;58.30;;;;;;5050697;28;20176;-68
2023/01/25 02:23:52;;;;;;;5.83;2.47;;;29.90;58.40;;;;;;5050192;28;20237;-72
2023/01/25 02:26:26;;;;;;;8.83;2.40;;;29.70;58.00;;;;;;5051035;28;20211;-69
2023/01/25 02:29:13;;;;;;;5.77;2.03;;;28.90;60.00;;;;;;5050878;28;20180;-71
2023/01/25 02:31:51;;;;;;;5.80;1.93;;;28.70;60.70;;;;;;5049952;28;20517;-74
2023/01/25 02:34:21;;;;;;;6.00;2.37;;;28.80;60.50;;;;;;5050570;28;20194;-72
2023/01/25 02:36:49;;;;;;;10.53;4.27;;;29.10;59.50;;;;;;5051620;28;20195;-73
2023/01/25 02:39:22;;;;;;;7.83;2.13;;;28.90;60.60;;;;;;5050953;28;20634;-72
2023/01/25 02:41:53;;;;;;;8.23;2.53;;;29.00;59.90;;;;;;5048228;28;20270;-71
2023/01/25 02:44:29;;;;;;;9.67;2.47;;;29.30;59.50;;;;;;5049026;28;20275;-69
2023/01/25 02:47:07;;;;;;;10.87;2.47;;;29.40;60.30;;;;;;5048505;28;20250;-69
2023/01/25 02:49:40;;;;;;;8.87;2.37;;;29.40;59.30;;;;;;5050046;28;20703;-68
2023/01/25 02:52:07;;;;;;;6.83;1.70;;;29.30;60.20;;;;;;5050896;28;20226;-70
2023/01/25 02:54:35;;;;;;;8.63;2.23;;;29.80;57.70;;;;;;5050590;28;20176;-69
2023/01/25 02:57:08;;;;;;;9.50;2.23;;;29.80;58.00;;;;;;5051013;28;20258;-69
2023/01/25 02:59:42;;;;;;;6.77;1.70;;;30.10;58.00;;;;;;5051062;28;20171;-70
2023/01/25 03:02:16;;;;;;;6.50;1.93;;;30.10;59.00;;;;;;5050306;28;20187;-69
2023/01/25 03:04:43;;;;;;;10.57;2.33;;;30.40;57.40;;;;;;5050804;28;20271;-68
2023/01/25 03:07:17;;;;;;;10.23;2.20;;;30.50;55.50;;;;;;5049578;28;20223;-71
2023/01/25 03:09:44;;;;;;;9.00;2.42;;;29.80;56.80;;;;;;5050561;28;20712;-72
2023/01/25 03:12:18;;;;;;;6.77;2.20;;;30.10;57.50;;;;;;5050501;28;20192;-73
2023/01/25 03:14:45;;;;;;;4.83;1.80;;;30.20;58.10;;;;;;5050526;28;20176;-71
2023/01/25 03:17:13;;;;;;;6.37;1.50;;;30.10;57.20;;;;;;5049432;28;20760;-71
2023/01/25 03:19:40;;;;;;;6.90;2.37;;;30.40;55.50;;;;;;5049778;28;20172;-71
2023/01/25 03:22:09;;;;;;;7.67;2.17;;;30.30;57.00;;;;;;5051019;28;20238;-71
2023/01/25 03:24:37;;;;;;;7.10;1.80;;;30.00;56.50;;;;;;5053862;28;20179;-72
2023/01/25 03:27:22;;;;;;;8.33;2.00;;;30.10;56.80;;;;;;5054091;28;20670;-71
2023/01/25 03:33:17;;;;;;;5.65;1.80;;;30.10;57.30;;;;;;5053522;28;20782;-70
2023/01/25 03:35:44;;;;;;;7.43;2.17;;;30.20;56.20;;;;;;5053221;28;20187;-71
2023/01/25 03:38:12;;;;;;;5.88;2.15;;;30.00;57.80;;;;;;5053868;28;20176;-72
2023/01/25 03:40:39;;;;;;;4.53;1.70;;;29.60;58.50;;;;;;5054058;28;20180;-71
2023/01/25 03:43:16;;;;;;;8.10;2.23;;;29.80;58.50;;;;;;5053325;28;20191;-72
2023/01/25 03:46:02;;;;;;;6.93;1.90;;;29.90;58.30;;;;;;5053607;28;20285;-73
2023/01/25 03:48:30;;;;;;;8.87;2.33;;;29.80;57.90;;;;;;5052583;28;20196;-71
2023/01/25 03:51:03;;;;;;;9.07;2.08;;;30.20;58.70;;;;;;5053284;28;20231;-72
2023/01/25 03:53:31;;;;;;;7.20;1.80;;;30.10;58.90;;;;;;5053868;28;20278;-73
2023/01/25 03:56:08;;;;;;;9.30;2.47;;;29.90;58.90;;;;;;5053614;28;20192;-73
2023/01/25 03:58:41;;;;;;;10.37;2.27;;;29.30;61.10;;;;;;5054198;28;20195;-71
2023/01/25 04:01:11;;;;;;;11.13;2.00;;;29.30;61.10;;;;;;5053673;28;20655;-68
2023/01/25 04:03:54;;;;;;;8.10;1.80;;;29.20;61.40;;;;;;5053388;28;20611;-72
2023/01/25 04:06:27;;;;;;;10.53;2.27;;;29.60;60.60;;;;;;5048797;28;20588;-73
2023/01/25 04:09:00;;;;;;;8.03;2.23;;;29.40;60.60;;;;;;5050938;28;20207;-74
2023/01/25 04:11:28;;;;;;;6.83;2.00;;;29.50;60.60;;;;;;5053730;28;20270;-71
2023/01/25 04:13:55;;;;;;;7.43;2.00;;;29.60;60.50;;;;;;5053812;28;20188;-70
2023/01/25 04:16:29;;;;;;;6.47;1.65;;;29.80;58.90;;;;;;5053419;28;20195;-73
2023/01/25 04:19:03;;;;;;;8.63;2.53;;;30.10;57.30;;;;;;5051850;28;20550;-73
2023/01/25 04:21:30;;;;;;;6.70;2.10;;;30.80;55.90;;;;;;5053048;28;20225;-72
2023/01/25 04:23:58;;;;;;;9.73;2.50;;;30.30;56.40;;;;;;5053210;28;20195;-75
2023/01/25 04:26:34;;;;;;;9.47;2.23;;;30.10;56.80;;;;;;5052955;28;20215;-72
2023/01/25 04:29:22;;;;;;;12.60;2.30;;;30.20;57.20;;;;;;5050788;28;20180;-73
2023/01/25 04:32:02;;;;;;;8.38;1.98;;;30.40;56.60;;;;;;5051684;28;20270;-71
2023/01/25 04:34:29;;;;;;;10.40;2.17;;;30.30;56.80;;;;;;5048295;28;20192;-71
2023/01/25 04:37:08;;;;;;;6.63;1.70;;;30.80;55.70;;;;;;5051691;28;20187;-69
2023/01/25 04:39:42;;;;;;;8.60;1.83;;;31.10;54.20;;;;;;5051812;28;20226;-70
2023/01/25 04:42:10;;;;;;;5.90;1.77;;;30.90;54.90;;;;;;5053041;28;20184;-73
2023/01/25 04:44:40;;;;;;;4.93;1.67;;;31.00;55.30;;;;;;5050816;28;20194;-69
2023/01/25 04:47:07;;;;;;;7.47;1.88;;;30.70;55.00;;;;;;5053494;28;20215;-70
2023/01/25 04:49:35;;;;;;;8.27;1.92;;;30.70;54.60;;;;;;5053020;28;20651;-68
2023/01/25 04:52:05;;;;;;;6.95;1.73;;;30.30;55.90;;;;;;5052996;28;20230;-71
2023/01/25 04:54:34;;;;;;;5.75;1.50;;;30.80;54.70;;;;;;5052135;28;20184;-70
2023/01/25 04:57:08;;;;;;;6.22;1.30;;;31.30;53.60;;;;;;5051678;28;20206;-68
2023/01/25 04:59:44;;;;;;;6.38;1.60;;;30.90;53.90;;;;;;5051072;28;20206;-67
2023/01/25 05:02:18;;;;;;;4.68;1.50;;;31.10;54.10;;;;;;5050447;28;20738;-69
2023/01/25 05:04:59;;;;;;;5.50;1.83;;;31.10;54.90;;;;;;5051281;28;20257;-71
2023/01/25 05:07:29;;;;;;;5.03;1.40;;;31.80;51.90;;;;;;5051891;28;20302;-70
2023/01/25 05:10:15;;;;;;;7.38;1.88;;;32.00;50.50;;;;;;5052463;28;20175;-68
2023/01/25 05:12:43;;;;;;;6.60;1.77;;;31.40;52.90;;;;;;5048948;28;20180;-71
2023/01/25 05:15:11;;;;;;;5.70;1.83;;;31.00;53.10;;;;;;5051259;28;20187;-71
2023/01/25 05:17:38;;;;;;;4.47;1.38;;;30.80;54.70;;;;;;5052545;28;20176;-70
2023/01/25 05:20:06;;;;;;;4.20;1.50;;;31.30;53.00;;;;;;5052421;28;20180;-71
2023/01/25 05:22:33;;;;;;;6.63;1.58;;;30.80;53.90;;;;;;5050491;28;20184;-69
2023/01/25 05:25:02;;;;;;;5.25;1.25;;;31.20;53.40;;;;;;5050551;28;20191;-69
2023/01/25 05:27:29;;;;;;;4.63;1.50;;;30.90;53.80;;;;;;5045344;28;20270;-72
2023/01/25 05:29:57;;;;;;;4.32;1.40;;;31.10;53.30;;;;;;5052093;28;20298;-71
2023/01/25 05:32:25;;;;;;;9.15;1.63;;;31.10;54.00;;;;;;5052280;28;20187;-71
2023/01/25 05:34:52;;;;;;;3.80;1.20;;;31.40;53.80;;;;;;5049042;28;20191;-72
2023/01/25 05:37:21;;;;;;;8.32;1.83;;;31.20;53.00;;;;;;5048263;28;20805;-70
2023/01/25 05:39:48;;;;;;;6.18;1.33;;;31.20;53.60;;;;;;5052260;28;20611;-69
2023/01/25 05:42:17;;;;;;;25.63;3.28;;;30.80;54.60;;;;;;5052410;28;20698;-70
2023/01/25 05:44:45;;;;;;;8.95;1.85;;;31.00;54.80;;;;;;5049065;28;20267;-72
2023/01/25 05:47:13;;;;;;;6.95;1.60;;;30.80;54.50;;;;;;5049825;28;20215;-70
2023/01/25 05:49:41;;;;;;;8.77;1.50;;;31.20;53.90;;;;;;5051180;28;20212;-70
2023/01/25 05:52:16;;;;;;;6.80;1.90;;;30.90;54.70;;;;;;5049920;28;20230;-70
2023/01/25 05:54:44;;;;;;;8.75;1.73;;;30.70;54.80;;;;;;5051509;28;20251;-69
2023/01/25 05:57:13;;;;;;;7.05;1.65;;;31.10;53.80;;;;;;5050762;28;20187;-70
2023/01/25 05:59:40;;;;;;;5.70;1.83;;;30.70;54.30;;;;;;5050156;28;20306;-73
2023/01/25 06:02:07;;;;;;;6.57;1.33;;;31.40;53.50;;;;;;5050042;28;20193;-71
2023/01/25 06:04:35;;;;;;;5.93;1.55;;;31.50;52.00;;;;;;5051040;28;20229;-69
2023/01/25 06:07:02;;;;;;;9.68;1.92;;;31.80;51.40;;;;;;5046924;28;20310;-69
2023/01/25 06:09:29;;;;;;;6.28;2.08;;;31.60;51.70;;;;;;5050776;28;20552;-71
2023/01/25 06:11:56;;;;;;;6.50;1.40;;;32.00;51.70;;;;;;5049214;28;20184;-70
2023/01/25 06:14:24;;;;;;;7.38;3.97;;;31.70;52.50;;;;;;5051548;28;20199;-73
2023/01/25 06:16:51;;;;;;;4.40;1.23;;;32.00;51.00;;;;;;5050709;28;20579;-69
2023/01/25 06:19:18;;;;;;;4.22;1.40;;;31.80;51.80;;;;;;5050387;28;20184;-71
2023/01/25 06:21:46;;;;;;;5.63;1.50;;;31.10;52.60;;;;;;5050214;28;20187;-71
2023/01/25 06:24:13;;;;;;;4.90;1.45;;;31.10;53.10;;;;;;5051211;28;20199;-70
2023/01/25 06:26:40;;;;;;;6.28;1.60;;;30.80;54.10;;;;;;5050085;28;20749;-68
2023/01/25 06:29:08;;;;;;;13.00;1.58;;;30.80;53.10;;;;;;5051120;28;20198;-72
2023/01/25 06:31:35;;;;;;;5.95;1.60;;;31.20;52.50;;;;;;5051716;28;20180;-69
2023/01/25 06:34:05;;;;;;;4.00;1.50;;;31.60;51.40;;;;;;5048980;28;20184;-70
2023/01/25 06:36:32;;;;;;;6.95;1.73;;;31.20;53.40;;;;;;5047653;28;20229;-67
2023/01/25 06:39:00;;;;;;;13.18;1.95;;;31.50;53.10;;;;;;5053828;28;20187;-69
2023/01/25 06:41:28;;;;;;;4.65;1.60;;;31.10;55.10;;;;;;5055700;28;20187;-69
2023/01/25 06:43:55;;;;;;;7.10;2.17;;;30.80;56.70;;;;;;5052534;28;20589;-70
2023/01/25 06:46:22;;;;;;;7.97;1.63;;;31.00;56.50;;;;;;5049620;28;20219;-69
2023/01/25 06:48:50;;;;;;;4.85;1.65;;;30.90;56.80;;;;;;5053607;28;20187;-69
2023/01/25 06:51:18;;;;;;;8.20;2.10;;;31.10;55.70;;;;;;5047037;28;20239;-71
2023/01/25 06:53:46;;;;;;;11.35;2.03;;;31.10;57.10;;;;;;5056381;28;20179;-68
2023/01/25 06:56:22;;;;;;;9.80;2.10;;;31.10;56.10;;;;;;5050542;28;20652;-68
2023/01/25 06:58:50;;;;;;;7.40;1.92;;;30.90;56.50;;;;;;5048299;28;20673;-70
2023/01/25 07:01:20;;;;;;;7.03;1.60;;;30.30;57.70;;;;;;5051529;28;20271;-69
2023/01/25 07:03:49;;;;;;;11.77;2.25;;;30.30;58.00;;;;;;5050353;28;20187;-69
2023/01/25 07:06:17;;;;;;;7.03;1.80;;;30.60;57.10;;;;;;5050087;28;20307;-70
2023/01/25 07:08:45;;;;;;;7.47;1.95;;;30.30;58.00;;;;;;5049165;28;20192;-69
2023/01/25 07:11:13;;;;;;;7.75;2.20;;;30.30;58.30;;;;;;5050693;28;20188;-68
2023/01/25 07:13:45;;;;;;;6.80;1.80;;;30.30;58.90;;;;;;5051237;28;20183;-68
2023/01/25 07:16:19;;;;;;;10.00;2.17;;;30.10;58.20;;;;;;5049848;28;20321;-69
2023/01/25 07:18:47;;;;;;;9.63;2.92;;;30.50;57.60;;;;;;5056203;28;20232;-69
2023/01/25 07:21:20;;;;;;;6.97;1.67;;;30.10;58.10;;;;;;5050334;28;20183;-68
2023/01/25 07:23:48;;;;;;;10.75;2.25;;;30.20;57.70;;;;;;5049555;28;20688;-69
2023/01/25 07:26:21;;;;;;;6.15;1.90;;;30.20;57.60;;;;;;5050670;28;20195;-67
2023/01/25 07:28:49;;;;;;;6.73;1.87;;;30.60;56.60;;;;;;5047937;28;20801;-69
2023/01/25 07:31:18;;;;;;;7.38;1.77;;;30.10;57.50;;;;;;5050393;28;20184;-67
2023/01/25 07:33:50;;;;;;;5.97;1.77;;;29.40;59.10;;;;;;5044357;28;20226;-68
2023/01/25 07:36:18;;;;;;;7.87;1.67;;;29.20;59.30;;;;;;5047344;28;20190;-67
2023/01/25 07:38:46;;;;;;;4.77;1.50;;;29.10;60.40;;;;;;5053508;28;20264;-70
2023/01/25 07:41:15;;;;;;;5.60;1.67;;;29.00;60.20;;;;;;5049560;28;20271;-68
2023/01/25 07:43:42;;;;;;;5.83;1.87;;;28.80;61.00;;;;;;5048656;28;20192;-65
2023/01/25 07:46:12;;;;;;;5.17;1.83;;;28.70;61.20;;;;;;5050418;28;20208;-69
2023/01/25 07:48:45;;;;;;;10.63;1.90;;;28.70;61.10;;;;;;5048736;28;20188;-68
2023/01/25 07:51:22;;;;;;;7.70;1.80;;;28.10;63.00;;;;;;5046394;28;20289;-68
2023/01/25 07:53:56;;;;;;;7.60;1.90;;;28.30;62.60;;;;;;5050310;28;20591;-69
2023/01/25 07:56:36;;;;;;;8.63;2.23;;;27.80;64.30;;;;;;5045833;28;20183;-68
2023/01/25 07:59:07;;;;;;;5.97;1.80;;;27.50;65.30;;;;;;5048501;28;20187;-67
2023/01/25 08:01:35;;;;;;;7.20;1.50;;;26.90;67.60;;;;;;5048569;28;20207;-70
2023/01/25 08:04:04;;;;;;;5.33;1.40;;;26.80;68.80;;;;;;5048001;28;20185;-67
2023/01/25 08:06:37;;;;;;;5.80;1.77;;;26.90;68.70;;;;;;5046188;28;20297;-69
2023/01/25 08:09:11;;;;;;;8.70;2.70;;;26.70;69.60;;;;;;5049413;28;20662;-69
2023/01/25 08:11:39;;;;;;;6.13;2.27;;;26.60;69.80;;;;;;5057424;28;20183;-68
2023/01/25 08:14:07;;;;;;;6.83;1.90;;;26.40;70.90;;;;;;5058605;28;20184;-68
2023/01/25 08:16:34;;;;;;;5.13;1.93;;;26.30;71.20;;;;;;5054827;28;20188;-67
2023/01/25 08:19:03;;;;;;;7.87;2.10;;;26.10;71.70;;;;;;5060015;28;20195;-69
2023/01/25 08:21:33;;;;;;;5.37;1.67;;;26.00;72.00;;;;;;5058939;28;20241;-67
2023/01/25 08:24:02;;;;;;;9.50;2.07;;;25.90;73.00;;;;;;5054994;28;20219;-68
2023/01/25 08:26:30;;;;;;;8.10;2.07;;;25.90;72.80;;;;;;5056059;28;20834;-69
2023/01/25 08:28:58;;;;;;;6.80;1.67;;;25.70;73.40;;;;;;5057247;28;20309;-69
2023/01/25 08:31:29;;;;;;;8.57;2.07;;;25.60;73.30;;;;;;5052215;28;20701;-69
2023/01/25 08:33:57;;;;;;;5.07;1.77;;;25.50;73.70;;;;;;5054313;28;20267;-68
2023/01/25 08:36:26;;;;;;;5.87;1.73;;;25.40;74.70;;;;;;5058822;28;20206;-69
2023/01/25 08:39:03;;;;;;;8.77;2.10;;;25.40;74.80;;;;;;5058387;28;20196;-68
2023/01/25 08:41:31;;;;;;;7.27;1.87;;;25.30;74.10;;;;;;5051722;28;20183;-69
2023/01/25 08:43:59;;;;;;;10.13;2.00;;;25.30;74.00;;;;;;5057565;28;20184;-71
2023/01/25 08:46:29;;;;;;;7.13;1.77;;;25.20;73.90;;;;;;5051842;28;20203;-70
2023/01/25 08:48:58;;;;;;;8.10;2.20;;;25.20;73.90;;;;;;5059351;28;20176;-68
2023/01/25 08:51:26;;;;;;;8.73;2.13;;;25.20;73.70;;;;;;5050151;28;20311;-70
2023/01/25 08:53:54;;;;;;;8.13;1.97;;;25.20;74.00;;;;;;5049934;28;20188;-71
2023/01/25 08:56:21;;;;;;;8.97;2.33;;;25.10;74.30;;;;;;5051871;28;20851;-69
2023/01/25 08:58:50;;;;;;;6.40;2.00;;;25.10;74.50;;;;;;5054504;28;20206;-70
2023/01/25 09:01:19;;;;;;;7.23;1.97;;;25.10;74.90;;;;;;5058466;28;20196;-72
2023/01/25 09:03:48;;;;;;;9.30;2.10;;;25.00;75.10;;;;;;5056006;28;20179;-70
2023/01/25 09:06:19;;;;;;;8.97;2.13;;;25.00;75.40;;;;;;5052802;28;20204;-72
2023/01/25 09:08:46;;;;;;;7.03;1.97;;;24.90;75.60;;;;;;5057792;28;20187;-74
2023/01/25 09:11:16;;;;;;;10.33;2.30;;;24.80;76.00;;;;;;5050038;28;20184;-71
2023/01/25 09:13:45;;;;;;;7.63;2.43;;;24.80;76.50;;;;;;5053693;28;20180;-72
2023/01/25 09:16:17;;;;;;;9.10;2.50;;;24.80;76.50;;;;;;5057599;28;20206;-74
2023/01/25 09:18:46;;;;;;;13.97;2.47;;;24.70;76.70;;;;;;5056388;28;20184;-72
2023/01/25 09:21:16;;;;;;;11.73;2.13;;;24.80;76.90;;;;;;5053869;28;20276;-69
2023/01/25 09:23:44;;;;;;;7.50;2.13;;;24.80;76.90;;;;;;5055725;28;20203;-73
2023/01/25 09:26:14;;;;;;;14.87;2.77;;;24.70;76.80;;;;;;5055690;28;20688;-68
2023/01/25 09:28:42;;;;;;;7.60;2.30;;;24.70;76.90;;;;;;5058563;28;20199;-71
2023/01/25 09:31:10;;;;;;;6.93;1.63;;;24.60;77.20;;;;;;5054545;28;20286;-73
2023/01/25 09:33:39;;;;;;;10.23;1.90;;;24.60;77.00;;;;;;5053935;28;20187;-71
2023/01/25 09:36:07;;;;;;;6.03;1.90;;;24.60;77.40;;;;;;5053327;28;20266;-70
2023/01/25 09:38:35;;;;;;;9.90;2.17;;;24.60;77.50;;;;;;5056895;28;20258;-71
2023/01/25 09:41:23;;;;;;;4.80;1.70;;;24.50;77.50;;;;;;5054532;28;20228;-70
2023/01/25 09:44:11;;;;;;;5.47;1.90;;;24.50;77.70;;;;;;5057235;28;20255;-70
2023/01/25 09:46:41;;;;;;;6.77;2.00;;;24.40;78.00;;;;;;5052290;28;20623;-71
2023/01/25 09:49:45;;;;;;;7.63;1.80;;;24.40;78.00;;;;;;5052270;28;20183;-69
2023/01/25 09:52:33;;;;;;;13.03;2.20;;;24.30;78.00;;;;;;5053487;28;20255;-72
2023/01/25 09:55:02;;;;;;;9.43;2.43;;;24.30;78.10;;;;;;5053749;28;20547;-71
2023/01/25 09:57:37;;;;;;;5.40;2.00;;;24.30;78.30;;;;;;5053767;28;20686;-70
2023/01/25 10:00:12;;;;;;;8.83;2.03;;;24.30;78.20;;;;;;5048298;28;20183;-72
2023/01/25 10:03:02;;;;;;;7.30;2.10;;;24.40;78.10;;;;;;5049462;28;20179;-72
2023/01/25 10:05:39;;;;;;;5.97;1.80;;;24.30;78.30;;;;;;5043472;28;20221;-74
2023/01/25 10:08:16;;;;;;;6.40;2.20;;;24.30;78.60;;;;;;5050899;28;20192;-72
2023/01/25 10:10:47;;;;;;;9.50;2.20;;;24.30;79.00;;;;;;5047750;28;20182;-71
2023/01/25 10:13:18;;;;;;;6.17;1.90;;;24.30;79.60;;;;;;5051138;28;20195;-72
2023/01/25 10:16:01;;;;;;;10.30;2.00;;;24.30;80.10;;;;;;5048369;28;20188;-69
2023/01/25 10:18:34;;;;;;;7.00;2.10;;;24.30;80.50;;;;;;5048495;28;20215;-72
2023/01/25 10:21:07;;;;;;;7.50;2.20;;;24.30;80.90;;;;;;5052106;28;20187;-69
2023/01/25 10:23:54;;;;;;;6.50;2.13;;;24.30;81.30;;;;;;5050211;28;20184;-69
2023/01/25 10:26:33;;;;;;;6.93;2.80;;;24.30;81.80;;;;;;5037511;28;20223;-68
2023/01/25 10:29:31;;;;;;;11.40;3.67;;;24.20;82.10;;;;;;5051352;28;20548;-69
2023/01/25 10:32:25;;;;;;;11.70;3.20;;;24.30;82.20;;;;;;5046845;28;20226;-70
2023/01/25 10:34:55;;;;;;;11.10;2.77;;;24.20;82.70;;;;;;5050496;28;20187;-69
2023/01/25 10:37:27;;;;;;;8.03;2.80;;;24.20;83.20;;;;;;5050497;28;20188;-70
2023/01/25 10:40:01;;;;;;;11.10;2.33;;;24.20;83.50;;;;;;5048487;28;20180;-69
2023/01/25 10:42:32;;;;;;;11.57;2.43;;;24.10;83.50;;;;;;5048327;28;20191;-71
2023/01/25 10:45:00;;;;;;;8.73;2.60;;;24.20;83.80;;;;;;5047292;28;20527;-69
2023/01/25 10:47:31;;;;;;;15.07;2.50;;;24.10;83.80;;;;;;5048120;28;20216;-69
2023/01/25 10:50:01;;;;;;;11.00;2.73;;;24.10;83.90;;;;;;5050168;28;20180;-70
2023/01/25 10:52:31;;;;;;;8.87;2.90;;;24.20;84.00;;;;;;5050752;28;20277;-72
2023/01/25 10:55:17;;;;;;;10.57;2.80;;;24.20;84.00;;;;;;5049439;28;20206;-71
2023/01/25 10:57:56;;;;;;;10.60;2.40;;;24.10;84.10;;;;;;5051380;28;20229;-70
2023/01/25 11:00:41;;;;;;;9.47;2.93;;;24.10;84.10;;;;;;5050547;28;20194;-71
2023/01/25 11:03:40;;;;;;;8.03;2.50;;;24.10;84.10;;;;;;5047917;28;20321;-73
2023/01/25 11:06:08;;;;;;;8.87;2.63;;;24.00;84.10;;;;;;5048982;28;20266;-69
2023/01/25 11:08:42;;;;;;;8.97;2.43;;;24.00;84.10;;;;;;5050319;28;20183;-69
2023/01/25 11:11:30;;;;;;;9.00;2.73;;;24.00;84.20;;;;;;5051103;28;20570;-69
2023/01/25 11:13:58;;;;;;;8.03;2.47;;;24.00;84.10;;;;;;5050075;28;20266;-69
2023/01/25 11:16:25;;;;;;;13.40;2.80;;;24.00;84.10;;;;;;5051824;28;20190;-69
2023/01/25 11:18:55;;;;;;;10.17;2.63;;;23.90;83.80;;;;;;5048557;28;20590;-68
2023/01/25 11:21:25;;;;;;;15.77;2.80;;;23.90;83.90;;;;;;5050461;28;20653;-69
2023/01/25 11:24:01;;;;;;;9.03;2.23;;;23.90;84.10;;;;;;5051221;28;20608;-69
2023/01/25 11:26:30;;;;;;;12.17;2.10;;;23.90;84.00;;;;;;5050710;28;20210;-72
2023/01/25 11:29:12;;;;;;;11.07;2.53;;;23.90;83.90;;;;;;5050196;28;20186;-70
2023/01/25 11:31:44;;;;;;;7.13;2.27;;;23.80;83.80;;;;;;5043335;28;20255;-69
2023/01/25 11:34:16;;;;;;;6.53;2.20;;;23.80;83.90;;;;;;5050682;28;20200;-70
2023/01/25 11:36:52;;;;;;;9.17;2.53;;;23.80;83.80;;;;;;5050295;28;20576;-70
2023/01/25 11:39:26;;;;;;;7.73;2.57;;;23.80;83.80;;;;;;5048360;28;20267;-68
2023/01/25 11:41:56;;;;;;;12.67;2.30;;;23.80;83.70;;;;;;5050772;28;20593;-71
2023/01/25 11:44:45;;;;;;;14.27;2.90;;;23.80;83.70;;;;;;5052793;28;20250;-71
2023/01/25 11:47:43;;;;;;;8.00;2.30;;;23.80;83.50;;;;;;5053743;28;20223;-68
2023/01/25 11:50:46;;;;;;;13.50;3.03;;;23.80;83.60;;;;;;5053515;28;20548;-70
2023/01/25 11:53:49;;;;;;;10.03;2.40;;;23.80;83.80;;;;;;5053475;28;20219;-69
2023/01/25 11:56:26;;;;;;;8.00;2.63;;;23.80;83.70;;;;;;5054236;28;20188;-69
2023/01/25 11:59:29;;;;;;;8.53;2.67;;;23.80;83.90;;;;;;5048399;28;20264;-69
2023/01/25 12:02:08;;;;;;;9.30;3.03;;;23.70;84.10;;;;;;5053968;28;20183;-69
2023/01/25 12:05:06;;;;;;;6.47;2.50;;;23.70;84.30;;;;;;5054227;28;20188;-71
2023/01/25 12:07:45;;;;;;;9.13;2.57;;;23.70;84.30;;;;;;5054610;28;20625;-69
2023/01/25 12:10:57;;;;;;;9.47;2.80;;;23.70;84.30;;;;;;5047864;28;20172;-69
2023/01/25 12:13:51;;;;;;;8.83;2.47;;;23.70;84.20;;;;;;5046302;28;20217;-70
2023/01/25 12:16:48;;;;;;;9.33;2.70;;;23.60;84.10;;;;;;5052163;28;20184;-69
2023/01/25 12:19:39;;;;;;;10.93;2.80;;;23.60;84.00;;;;;;5052895;28;20267;-68
2023/01/25 12:22:24;;;;;;;12.97;2.63;;;23.60;84.10;;;;;;5053746;28;20267;-69
2023/01/25 12:25:09;;;;;;;12.63;2.97;;;23.50;84.10;;;;;;5057383;28;20513;-68
2023/01/25 12:28:07;;;;;;;13.90;3.13;;;23.50;84.30;;;;;;5056933;28;20302;-68
2023/01/25 12:30:42;;;;;;;8.97;2.77;;;23.50;84.40;;;;;;5036232;28;20596;-72
2023/01/25 12:33:17;;;;;;;11.97;2.70;;;23.50;84.50;;;;;;5056910;28;20653;-69
2023/01/25 12:36:02;;;;;;;8.33;2.87;;;23.40;84.70;;;;;;5060452;28;20184;-68
2023/01/25 12:39:05;;;;;;;7.03;3.33;;;23.40;85.00;;;;;;5050055;28;20184;-68
2023/01/25 12:42:07;;;;;;;9.33;2.30;;;23.30;85.10;;;;;;5050594;28;20191;-69
2023/01/25 12:45:07;;;;;;;8.07;2.87;;;23.30;85.10;;;;;;5017481;28;20204;-69
2023/01/25 12:47:50;;;;;;;7.60;2.80;;;23.30;85.40;;;;;;5049603;28;20219;-71
2023/01/25 12:50:39;;;;;;;14.27;3.10;;;23.30;85.60;;;;;;5054836;28;20721;-69
2023/01/25 12:53:27;;;;;;;7.80;2.47;;;23.30;85.80;;;;;;5052854;28;20262;-68
2023/01/25 12:55:57;;;;;;;11.47;2.97;;;23.30;85.90;;;;;;5056824;28;20180;-70
2023/01/25 12:58:27;;;;;;;13.30;2.97;;;23.30;85.90;;;;;;5052103;28;20650;-70
2023/01/25 13:01:01;;;;;;;14.43;2.90;;;23.30;85.90;;;;;;5053454;28;20230;-71
2023/01/25 13:03:55;;;;;;;8.37;2.67;;;23.20;86.20;;;;;;5054368;28;20180;-68
2023/01/25 13:06:40;;;;;;;8.33;2.93;;;23.20;86.20;;;;;;5053229;28;20204;-69
2023/01/25 13:09:11;;;;;;;10.53;2.97;;;23.10;86.40;;;;;;5054200;28;20184;-68
2023/01/25 13:11:44;;;;;;;9.20;2.90;;;23.10;86.40;;;;;;5057303;28;20200;-69
2023/01/25 13:14:17;;;;;;;9.20;3.00;;;23.10;86.50;;;;;;5052323;28;20262;-68
2023/01/25 13:16:52;;;;;;;6.77;2.80;;;23.10;86.50;;;;;;5060140;28;20305;-68
2023/01/25 13:19:32;;;;;;;10.33;2.73;;;23.00;86.50;;;;;;5053227;28;20198;-70
2023/01/25 13:22:00;;;;;;;8.83;2.60;;;23.00;86.80;;;;;;5053443;28;20179;-71
2023/01/25 13:24:28;;;;;;;14.37;2.80;;;23.10;86.40;;;;;;5056866;28;20256;-69
2023/01/25 13:26:56;;;;;;;10.73;2.83;;;23.00;86.50;;;;;;5055209;28;20696;-68